createdAt,value
2023-02-16T00:00:30.530Z,99934.34
2023-02-16T00:02:59.565Z,99940.53
2023-02-16T00:05:31.327Z,99954.75
2023-02-16T00:08:01.666Z,99949.50
2023-02-16T00:10:38.749Z,99953.84
2023-02-16T00:13:46.222Z,99956.47
2023-02-16T00:16:23.350Z,99952.41
2023-02-16T00:18:53.009Z,99963.09
2023-02-16T00:21:22.204Z,99961.84
2023-02-16T00:23:50.709Z,99961.69
2023-02-16T00:26:25.129Z,99961.69
2023-02-16T00:29:01.732Z,99969.56
2023-02-16T00:31:34.387Z,99978.22
2023-02-16T00:34:25.791Z,99985.66
2023-02-16T00:36:54.108Z,99995.84
2023-02-16T00:39:22.771Z,99999.41
2023-02-16T00:41:54.830Z,100005.28
2023-02-16T00:44:39.261Z,100010.69
2023-02-16T00:47:29.045Z,100011.31
2023-02-16T00:49:58.317Z,100014.69
2023-02-16T00:52:38.727Z,100012.97
2023-02-16T00:55:15.286Z,100015.09
2023-02-16T00:57:49.365Z,100017.72
2023-02-16T01:00:20.912Z,100019.09
2023-02-16T01:02:51.481Z,100017.69
2023-02-16T01:05:19.961Z,100025.41
2023-02-16T01:08:07.089Z,100025.06
2023-02-16T01:10:55.727Z,100027.50
2023-02-16T01:13:24.912Z,100039.84
2023-02-16T01:15:53.667Z,100045.06
2023-02-16T01:18:23.239Z,100053.06
2023-02-16T01:20:54.998Z,100049.63
2023-02-16T01:23:23.285Z,100059.66
2023-02-16T01:25:51.686Z,100067.88
2023-02-16T01:28:27.678Z,100056.31
2023-02-16T01:30:56.105Z,100062.00
2023-02-16T01:33:24.501Z,100060.56
2023-02-16T01:35:54.880Z,100067.50
2023-02-16T01:38:27.146Z,100076.50
2023-02-16T01:41:30.811Z,100077.56
2023-02-16T01:44:07.050Z,100075.66
2023-02-16T01:46:40.701Z,100080.09
2023-02-16T01:49:17.923Z,100077.41
2023-02-16T01:52:20.305Z,100085.44
2023-02-16T01:54:54.246Z,100087.06
2023-02-16T01:57:44.814Z,100087.94
2023-02-16T02:00:33.957Z,100097.94
2023-02-16T02:03:22.714Z,100098.34
2023-02-16T02:05:52.634Z,100097.47
2023-02-16T02:08:42.374Z,100106.53
2023-02-16T02:11:33.473Z,100096.53
2023-02-16T02:14:10.957Z,100107.13
2023-02-16T02:16:39.332Z,100119.75
2023-02-16T02:19:07.665Z,100109.72
2023-02-16T02:22:02.786Z,100109.50
2023-02-16T02:25:01.521Z,100109.56
2023-02-16T02:28:13.357Z,100107.84
2023-02-16T02:30:59.672Z,100111.69
2023-02-16T02:34:03.115Z,100123.44
2023-02-16T02:36:34.417Z,100118.41
2023-02-16T02:39:28.847Z,100127.69
2023-02-16T02:42:15.402Z,100129.28
2023-02-16T02:45:03.336Z,100134.97
2023-02-16T02:47:43.928Z,100141.72
2023-02-16T02:50:36.750Z,100144.13
2023-02-16T02:53:13.629Z,100143.69
2023-02-16T02:56:06.800Z,100137.19
2023-02-16T02:59:12.902Z,100139.88
2023-02-16T03:01:48.234Z,100148.88
2023-02-16T03:04:22.364Z,100144.38
2023-02-16T03:06:55.107Z,100144.44
2023-02-16T03:09:24.337Z,100129.25
2023-02-16T03:12:15.391Z,100136.47
2023-02-16T03:14:49.454Z,100140.59
2023-02-16T03:17:40.478Z,100139.88
2023-02-16T03:20:34.266Z,100129.72
2023-02-16T03:23:22.790Z,100138.66
2023-02-16T03:26:12.883Z,100135.66
2023-02-16T03:29:03.053Z,100131.88
2023-02-16T03:31:37.177Z,100133.19
2023-02-16T03:34:07.107Z,100122.50
2023-02-16T03:36:38.430Z,100122.28
2023-02-16T03:39:08.185Z,100119.25
2023-02-16T03:41:41.648Z,100122.09
2023-02-16T03:44:10.493Z,100112.97
2023-02-16T03:46:39.032Z,100121.16
2023-02-16T03:49:07.478Z,100114.06
2023-02-16T03:51:35.780Z,100104.63
2023-02-16T03:54:04.353Z,100100.34
2023-02-16T03:56:32.722Z,100098.59
2023-02-16T03:59:01.160Z,100096.03
2023-02-16T04:01:29.532Z,100097.09
2023-02-16T04:03:57.961Z,100097.16
2023-02-16T04:06:26.338Z,100096.91
2023-02-16T04:08:55.520Z,100086.97
2023-02-16T04:11:42.016Z,100085.47
2023-02-16T04:14:10.458Z,100090.34
2023-02-16T04:16:38.823Z,100086.81
2023-02-16T04:19:08.519Z,100076.88
2023-02-16T04:21:36.911Z,100082.25
2023-02-16T04:24:06.757Z,100074.88
2023-02-16T04:26:35.171Z,100072.84
2023-02-16T04:29:03.471Z,100066.19
2023-02-16T04:31:31.943Z,100061.84
2023-02-16T04:34:00.348Z,100063.13
2023-02-16T04:36:28.712Z,100057.25
2023-02-16T04:38:57.020Z,100051.91
2023-02-16T04:41:27.433Z,100037.84
2023-02-16T04:43:55.744Z,100031.75
2023-02-16T04:46:24.858Z,100022.56
2023-02-16T04:48:53.481Z,100023.66
2023-02-16T04:51:21.822Z,100012.69
2023-02-16T04:53:50.158Z,100013.47
2023-02-16T04:56:18.689Z,100004.28
2023-02-16T04:58:47.046Z,99988.69
2023-02-16T05:01:27.192Z,99989.50
2023-02-16T05:03:56.038Z,99984.13
2023-02-16T05:06:24.578Z,99977.72
2023-02-16T05:08:52.854Z,99972.84
2023-02-16T05:11:39.418Z,99966.47
2023-02-16T05:14:26.139Z,99956.75
2023-02-16T05:16:55.145Z,99955.72
2023-02-16T05:19:23.449Z,99958.03
2023-02-16T05:21:51.754Z,99956.75
2023-02-16T05:24:20.082Z,99946.28
2023-02-16T05:26:48.430Z,99947.59
2023-02-16T05:29:16.794Z,99943.50
2023-02-16T05:31:45.248Z,99935.09
2023-02-16T05:34:13.723Z,99920.78
2023-02-16T05:36:42.378Z,99918.22
2023-02-16T05:39:10.975Z,99922.56
2023-02-16T05:41:41.890Z,99906.44
2023-02-16T05:44:10.981Z,99897.72
2023-02-16T05:46:41.067Z,99899.75
2023-02-16T05:49:10.351Z,99904.28
2023-02-16T05:51:39.023Z,99891.22
2023-02-16T05:54:08.019Z,99882.47
2023-02-16T05:56:36.314Z,99875.00
2023-02-16T05:59:04.725Z,99869.34
2023-02-16T06:01:33.032Z,99864.47
2023-02-16T06:04:01.441Z,99862.13
2023-02-16T06:06:29.861Z,99861.09
2023-02-16T06:08:58.179Z,99849.28
2023-02-16T06:11:38.832Z,99836.72
2023-02-16T06:14:19.337Z,99834.44
2023-02-16T06:16:49.800Z,99828.03
2023-02-16T06:19:19.348Z,99816.25
2023-02-16T06:21:48.529Z,99813.16
2023-02-16T06:24:16.909Z,99800.59
2023-02-16T06:26:45.248Z,99796.19
2023-02-16T06:29:13.592Z,99797.44
2023-02-16T06:31:41.962Z,99795.34
2023-02-16T06:34:10.424Z,99775.50
2023-02-16T06:36:41.241Z,99776.47
2023-02-16T06:39:11.330Z,99772.78
2023-02-16T06:41:41.208Z,99765.78
2023-02-16T06:44:14.952Z,99763.66
2023-02-16T06:46:45.273Z,99744.41
2023-02-16T06:49:19.258Z,99749.75
2023-02-16T06:51:49.381Z,99740.75
2023-02-16T06:54:19.268Z,99738.44
2023-02-16T06:56:47.572Z,99736.38
2023-02-16T06:59:15.949Z,99723.25
2023-02-16T07:01:45.308Z,99729.88
2023-02-16T07:04:14.654Z,99723.72
2023-02-16T07:06:43.226Z,99721.66
2023-02-16T07:09:12.752Z,99712.88
2023-02-16T07:11:41.492Z,99708.00
2023-02-16T07:14:10.011Z,99706.19
2023-02-16T07:16:38.446Z,99706.66
2023-02-16T07:19:07.860Z,99702.00
2023-02-16T07:21:36.389Z,99698.34
2023-02-16T07:24:05.410Z,99696.75
2023-02-16T07:26:34.515Z,99678.50
2023-02-16T07:29:02.921Z,99684.91
2023-02-16T07:31:31.429Z,99671.03
2023-02-16T07:33:59.884Z,99673.84
2023-02-16T07:36:28.219Z,99669.19
2023-02-16T07:38:56.573Z,99667.38
2023-02-16T07:41:24.869Z,99653.47
2023-02-16T07:43:53.169Z,99655.75
2023-02-16T07:46:21.490Z,99647.84
2023-02-16T07:48:51.093Z,99647.06
2023-02-16T07:51:24.690Z,99635.25
2023-02-16T07:53:53.948Z,99634.47
2023-02-16T07:56:24.180Z,99635.56
2023-02-16T07:58:57.197Z,99628.63
2023-02-16T08:01:26.462Z,99620.47
2023-02-16T08:03:55.258Z,99621.75
2023-02-16T08:06:24.078Z,99613.53
2023-02-16T08:08:52.412Z,99617.88
2023-02-16T08:11:23.567Z,99613.75
2023-02-16T08:13:52.992Z,99613.44
2023-02-16T08:16:26.245Z,99609.31
2023-02-16T08:18:57.224Z,99613.16
2023-02-16T08:21:30.851Z,99620.59
2023-02-16T08:24:05.844Z,99613.97
2023-02-16T08:26:42.565Z,99610.69
2023-02-16T08:29:13.553Z,99602.53
2023-02-16T08:31:42.757Z,99603.63
2023-02-16T08:34:11.606Z,99587.00
2023-02-16T08:36:41.096Z,99593.19
2023-02-16T08:39:15.798Z,99595.25
2023-02-16T08:41:46.346Z,99595.03
2023-02-16T08:44:16.476Z,99589.91
2023-02-16T08:46:47.544Z,99589.69
2023-02-16T08:49:18.376Z,99589.75
2023-02-16T08:51:49.988Z,99596.25
2023-02-16T08:54:20.824Z,99595.09
2023-02-16T08:56:50.577Z,99590.81
2023-02-16T08:59:21.031Z,99586.00
2023-02-16T09:01:49.937Z,99581.41
2023-02-16T09:04:20.739Z,99585.53
2023-02-16T09:06:49.946Z,99586.53
2023-02-16T09:09:18.936Z,99581.66
2023-02-16T09:11:47.840Z,99586.00
2023-02-16T09:14:19.386Z,99579.38
2023-02-16T09:16:47.764Z,99578.91
2023-02-16T09:19:21.750Z,99575.09
2023-02-16T09:21:51.742Z,99585.38
2023-02-16T09:24:20.350Z,99580.28
2023-02-16T09:26:49.593Z,99578.53
2023-02-16T09:29:19.099Z,99579.06
2023-02-16T09:31:47.488Z,99572.44
2023-02-16T09:34:19.290Z,99585.00
2023-02-16T09:36:48.371Z,99577.63
2023-02-16T09:39:18.021Z,99577.34
2023-02-16T09:42:22.776Z,99584.06
2023-02-16T09:44:55.754Z,99585.66
2023-02-16T09:47:31.971Z,99575.97
2023-02-16T09:50:07.444Z,99582.16
2023-02-16T09:52:42.767Z,99582.97
2023-02-16T09:55:17.686Z,99582.53
2023-02-16T09:58:13.956Z,99579.19
2023-02-16T10:00:51.830Z,99582.31
2023-02-16T10:03:50.169Z,99584.66
2023-02-16T10:06:49.182Z,99588.53
2023-02-16T10:09:20.559Z,99588.38
2023-02-16T10:12:06.523Z,99589.44
2023-02-16T10:14:38.072Z,99584.59
2023-02-16T10:17:25.186Z,99591.81
2023-02-16T10:20:17.816Z,99591.09
2023-02-16T10:23:04.446Z,99592.97
2023-02-16T10:25:57.439Z,99593.03
2023-02-16T10:28:42.501Z,99598.69
2023-02-16T10:31:37.910Z,99601.53
2023-02-16T10:34:24.384Z,99599.53
2023-02-16T10:37:23.217Z,99610.84
2023-02-16T10:40:24.074Z,99609.59
2023-02-16T10:43:24.823Z,99616.53
2023-02-16T10:45:55.601Z,99615.53
2023-02-16T10:48:25.181Z,99616.34
2023-02-16T10:51:07.142Z,99621.50
2023-02-16T10:53:51.094Z,99628.69
2023-02-16T10:56:19.344Z,99630.25
2023-02-16T10:58:48.942Z,99634.59
2023-02-16T11:01:19.861Z,99639.75
2023-02-16T11:03:54.322Z,99647.69
2023-02-16T11:06:26.561Z,99644.13
2023-02-16T11:08:58.791Z,99645.69
2023-02-16T11:11:28.236Z,99645.19
2023-02-16T11:14:06.840Z,99652.34
2023-02-16T11:16:36.977Z,99655.44
2023-02-16T11:19:10.179Z,99651.38
2023-02-16T11:21:49.478Z,99658.56
2023-02-16T11:24:38.183Z,99662.16
2023-02-16T11:27:21.001Z,99655.78
2023-02-16T11:29:50.025Z,99659.88
2023-02-16T11:32:22.435Z,99659.91
2023-02-16T11:34:52.602Z,99666.31
2023-02-16T11:37:32.003Z,99671.19
2023-02-16T11:40:01.962Z,99669.13
2023-02-16T11:42:32.483Z,99673.97
2023-02-16T11:45:03.085Z,99667.59
2023-02-16T11:47:41.378Z,99683.19
2023-02-16T11:50:31.419Z,99687.53
2023-02-16T11:53:23.778Z,99689.59
2023-02-16T11:55:52.281Z,99696.72
2023-02-16T11:58:27.096Z,99696.22
2023-02-16T12:01:10.261Z,99702.59
2023-02-16T12:03:51.350Z,99705.16
2023-02-16T12:06:37.909Z,99710.50
2023-02-16T12:09:33.788Z,99713.06
2023-02-16T12:12:17.558Z,99719.19
2023-02-16T12:15:22.287Z,99722.75
2023-02-16T12:18:11.961Z,99728.88
2023-02-16T12:21:13.999Z,99727.63
2023-02-16T12:24:11.588Z,99731.19
2023-02-16T12:27:15.802Z,99728.38
2023-02-16T12:29:59.063Z,99735.78
2023-02-16T12:32:38.478Z,99735.28
2023-02-16T12:35:21.635Z,99745.22
2023-02-16T12:38:20.270Z,99751.34
2023-02-16T12:41:20.496Z,99756.19
2023-02-16T12:44:26.221Z,99755.94
2023-02-16T12:47:07.248Z,99759.25
2023-02-16T12:49:57.411Z,99772.53
2023-02-16T12:52:48.181Z,99772.25
2023-02-16T12:55:44.162Z,99771.97
2023-02-16T12:58:21.015Z,99778.88
2023-02-16T13:01:26.684Z,99784.22
2023-02-16T13:04:15.438Z,99782.44
2023-02-16T13:06:47.437Z,99795.69
2023-02-16T13:09:49.148Z,99797.47
2023-02-16T13:12:40.596Z,99804.34
2023-02-16T13:15:23.838Z,99807.66
2023-02-16T13:18:03.380Z,99821.44
2023-02-16T13:20:33.055Z,99823.22
2023-02-16T13:23:38.931Z,99831.38
2023-02-16T13:26:33.304Z,99840.03
2023-02-16T13:29:11.773Z,99841.31
2023-02-16T13:31:48.921Z,99846.66
2023-02-16T13:34:53.421Z,99852.75
2023-02-16T13:37:39.663Z,99855.28
2023-02-16T13:40:13.915Z,99862.66
2023-02-16T13:43:02.828Z,99857.31
2023-02-16T13:45:38.660Z,99864.94
2023-02-16T13:48:23.667Z,99861.88
2023-02-16T13:51:04.812Z,99860.09
2023-02-16T13:53:43.451Z,99864.66
2023-02-16T13:56:25.105Z,99877.16
2023-02-16T13:58:54.430Z,99875.84
2023-02-16T14:01:44.015Z,99874.81
2023-02-16T14:04:24.568Z,99879.38
2023-02-16T14:07:05.661Z,99881.16
2023-02-16T14:09:40.277Z,99892.09
2023-02-16T14:12:15.388Z,99898.72
2023-02-16T14:14:43.653Z,99895.66
2023-02-16T14:17:22.503Z,99897.41
2023-02-16T14:20:06.219Z,99903.25
2023-02-16T14:22:40.303Z,99907.06
2023-02-16T14:25:29.945Z,99907.75
2023-02-16T14:28:06.216Z,99907.50
2023-02-16T14:30:40.634Z,99909.75
2023-02-16T14:33:35.175Z,99914.31
2023-02-16T14:36:03.444Z,99918.09
2023-02-16T14:38:38.303Z,99912.22
2023-02-16T14:41:14.661Z,99918.84
2023-02-16T14:43:51.680Z,99917.03
2023-02-16T14:46:49.388Z,99920.06
2023-02-16T14:49:47.637Z,99921.81
2023-02-16T14:52:18.610Z,99912.38
2023-02-16T14:55:24.443Z,99917.41
2023-02-16T14:57:55.457Z,99930.88
2023-02-16T15:00:34.584Z,99926.28
2023-02-16T15:03:14.909Z,99930.84
2023-02-16T15:05:50.755Z,99945.06
2023-02-16T15:08:24.916Z,99939.19
2023-02-16T15:10:57.495Z,99941.44
2023-02-16T15:13:29.018Z,99952.09
2023-02-16T15:16:01.329Z,99947.47
2023-02-16T15:18:54.738Z,99963.22
2023-02-16T15:21:29.281Z,99959.13
2023-02-16T15:24:02.434Z,99966.75
2023-02-16T15:26:36.796Z,99961.34
2023-02-16T15:29:24.110Z,99967.94
2023-02-16T15:31:52.781Z,99964.34
2023-02-16T15:34:31.828Z,99961.00
2023-02-16T15:37:01.676Z,99973.97
2023-02-16T15:39:51.931Z,99971.66
2023-02-16T15:42:30.623Z,99975.13
2023-02-16T15:44:59.055Z,99968.00
2023-02-16T15:47:28.263Z,99971.50
2023-02-16T15:49:56.589Z,99973.25
2023-02-16T15:52:36.644Z,99968.38
2023-02-16T15:55:10.063Z,99974.66
2023-02-16T15:57:41.707Z,99975.16
2023-02-16T16:00:20.330Z,99975.06
2023-02-16T16:02:55.457Z,99985.97
2023-02-16T16:05:30.210Z,99990.72
2023-02-16T16:07:58.771Z,99992.19
2023-02-16T16:10:31.732Z,99997.25
2023-02-16T16:13:04.994Z,100002.75
2023-02-16T16:15:40.028Z,99999.41
2023-02-16T16:18:28.186Z,100005.41
2023-02-16T16:21:03.484Z,100010.44
2023-02-16T16:23:31.917Z,100008.34
2023-02-16T16:26:03.715Z,100006.53
2023-02-16T16:28:32.093Z,100010.28
2023-02-16T16:31:15.631Z,100011.75
2023-02-16T16:34:00.292Z,100014.75
2023-02-16T16:36:36.725Z,100009.34
2023-02-16T16:39:21.570Z,100013.59
2023-02-16T16:42:19.762Z,100015.81
2023-02-16T16:45:00.746Z,100004.06
2023-02-16T16:47:42.063Z,100012.66
2023-02-16T16:50:16.147Z,100007.25
2023-02-16T16:52:45.868Z,100011.78
2023-02-16T16:55:23.299Z,100004.38
2023-02-16T16:57:54.251Z,100008.88
2023-02-16T17:00:23.983Z,100006.00
2023-02-16T17:02:53.324Z,100011.28
2023-02-16T17:05:22.197Z,100013.81
2023-02-16T17:07:51.104Z,100008.69
2023-02-16T17:10:21.569Z,100002.06
2023-02-16T17:12:56.916Z,99999.75
2023-02-16T17:16:02.514Z,99997.59
2023-02-16T17:18:32.089Z,99994.50
2023-02-16T17:21:00.679Z,99991.13
2023-02-16T17:23:28.973Z,99996.41
2023-02-16T17:25:57.335Z,99996.91
2023-02-16T17:28:25.679Z,99987.94
2023-02-16T17:30:53.964Z,99996.81
2023-02-16T17:33:22.238Z,99987.84
2023-02-16T17:35:50.551Z,99985.53
2023-02-16T17:38:21.553Z,99994.41
2023-02-16T17:40:55.304Z,99983.41
2023-02-16T17:43:24.878Z,99986.22
2023-02-16T17:45:55.828Z,99987.16
2023-02-16T17:48:28.656Z,99986.88
2023-02-16T17:51:00.140Z,99986.59
2023-02-16T17:53:29.198Z,99985.22
2023-02-16T17:55:59.041Z,99988.47
2023-02-16T17:58:27.676Z,99994.25
2023-02-16T18:00:56.069Z,99986.84
2023-02-16T18:03:26.011Z,99984.22
2023-02-16T18:05:54.850Z,99990.78
2023-02-16T18:08:23.410Z,99991.75
2023-02-16T18:10:55.193Z,99986.81
2023-02-16T18:13:23.477Z,99991.03
2023-02-16T18:15:51.831Z,99984.38
2023-02-16T18:18:20.424Z,99983.03
2023-02-16T18:20:49.109Z,99981.19
2023-02-16T18:23:17.574Z,99985.66
2023-02-16T18:25:46.626Z,99989.88
2023-02-16T18:28:19.289Z,99987.56
2023-02-16T18:30:50.121Z,99976.59
2023-02-16T18:33:21.905Z,99984.19
2023-02-16T18:35:53.688Z,99981.09
2023-02-16T18:38:22.916Z,99981.09
2023-02-16T18:40:52.975Z,99965.31
2023-02-16T18:43:22.054Z,99960.19
2023-02-16T18:45:52.950Z,99960.97
2023-02-16T18:48:21.332Z,99949.03
2023-02-16T18:50:49.682Z,99942.69
2023-02-16T18:53:17.984Z,99941.91
2023-02-16T18:55:46.332Z,99943.16
2023-02-16T18:58:15.870Z,99936.53
2023-02-16T19:00:44.990Z,99930.66
2023-02-16T19:03:13.605Z,99927.56
2023-02-16T19:05:42.359Z,99924.47
2023-02-16T19:08:10.649Z,99922.19
2023-02-16T19:10:38.957Z,99928.22
2023-02-16T19:13:08.241Z,99919.56
2023-02-16T19:15:39.700Z,99910.13
2023-02-16T19:18:07.975Z,99914.66
2023-02-16T19:20:36.951Z,99912.31
2023-02-16T19:23:05.300Z,99896.06
2023-02-16T19:25:33.645Z,99901.34
2023-02-16T19:28:01.953Z,99895.47
2023-02-16T19:30:30.591Z,99902.75
2023-02-16T19:32:59.405Z,99899.22
2023-02-16T19:35:27.694Z,99895.34
2023-02-16T19:37:56.824Z,99892.28
2023-02-16T19:40:25.129Z,99890.72
2023-02-16T19:42:53.521Z,99886.41
2023-02-16T19:45:21.856Z,99890.13
2023-02-16T19:47:52.309Z,99884.56
2023-02-16T19:50:20.771Z,99887.81
2023-02-16T19:52:49.067Z,99876.38
2023-02-16T19:55:17.569Z,99876.84
2023-02-16T19:57:45.841Z,99865.41
2023-02-16T20:00:15.069Z,99862.31
2023-02-16T20:02:43.398Z,99859.22
2023-02-16T20:05:12.224Z,99863.72
2023-02-16T20:07:40.666Z,99857.56
2023-02-16T20:10:09.561Z,99867.66
2023-02-16T20:12:38.591Z,99856.66
2023-02-16T20:15:07.502Z,99861.94
2023-02-16T20:17:35.796Z,99859.31
2023-02-16T20:20:05.019Z,99852.38
2023-02-16T20:22:33.500Z,99856.09
2023-02-16T20:25:01.797Z,99852.72
2023-02-16T20:27:30.113Z,99850.88
2023-02-16T20:29:58.386Z,99848.25
2023-02-16T20:32:28.200Z,99846.72
2023-02-16T20:34:56.573Z,99836.81
2023-02-16T20:37:24.934Z,99836.53
2023-02-16T20:39:53.300Z,99825.09
2023-02-16T20:42:21.585Z,99834.69
2023-02-16T20:44:49.907Z,99830.84
2023-02-16T20:47:18.422Z,99828.50
2023-02-16T20:49:46.718Z,99824.66
2023-02-16T20:52:15.460Z,99826.34
2023-02-16T20:54:43.912Z,99822.03
2023-02-16T20:57:25.647Z,99832.88
2023-02-16T20:59:55.280Z,99827.00
2023-02-16T21:02:24.045Z,99831.81
2023-02-16T21:04:52.463Z,99818.34
2023-02-16T21:07:20.803Z,99825.47
2023-02-16T21:09:49.118Z,99825.16
2023-02-16T21:12:17.429Z,99812.47
2023-02-16T21:14:45.755Z,99820.53
2023-02-16T21:17:14.087Z,99815.44
2023-02-16T21:19:42.392Z,99823.03
2023-02-16T21:22:10.971Z,99809.09
2023-02-16T21:24:41.633Z,99809.09
2023-02-16T21:27:10.036Z,99814.66
2023-02-16T21:29:39.133Z,99819.47
2023-02-16T21:32:07.522Z,99820.72
2023-02-16T21:34:36.652Z,99817.16
2023-02-16T21:37:05.752Z,99817.63
2023-02-16T21:39:52.361Z,99817.16
2023-02-16T21:42:20.709Z,99811.59
2023-02-16T21:44:50.893Z,99813.13
2023-02-16T21:47:37.640Z,99815.13
2023-02-16T21:50:06.093Z,99820.72
2023-02-16T21:52:34.379Z,99818.69
2023-02-16T21:55:21.078Z,99817.44
2023-02-16T21:57:49.946Z,99817.16
2023-02-16T22:00:18.476Z,99810.03
2023-02-16T22:02:46.763Z,99819.63
2023-02-16T22:05:15.166Z,99821.66
2023-02-16T22:07:43.520Z,99816.56
2023-02-16T22:10:12.004Z,99819.34
2023-02-16T22:12:40.287Z,99824.13
2023-02-16T22:15:08.892Z,99826.91
2023-02-16T22:17:37.209Z,99822.59
2023-02-16T22:20:05.992Z,99831.41
2023-02-16T22:22:34.698Z,99833.44
2023-02-16T22:25:03.066Z,99833.91
2023-02-16T22:27:31.377Z,99839.63
2023-02-16T22:29:59.693Z,99848.13
2023-02-16T22:32:28.032Z,99843.03
2023-02-16T22:34:56.360Z,99847.53
2023-02-16T22:37:24.832Z,99854.34
2023-02-16T22:39:55.982Z,99848.47
2023-02-16T22:42:24.546Z,99842.28
2023-02-16T22:44:52.867Z,99849.56
2023-02-16T22:47:21.336Z,99849.25
2023-02-16T22:49:49.652Z,99848.94
2023-02-16T22:52:18.004Z,99853.75
2023-02-16T22:54:46.463Z,99854.22
2023-02-16T22:57:14.755Z,99864.56
2023-02-16T22:59:43.040Z,99865.00
2023-02-16T23:02:11.380Z,99865.81
2023-02-16T23:04:41.192Z,99878.16
2023-02-16T23:07:10.669Z,99882.94
2023-02-16T23:09:39.360Z,99877.06
2023-02-16T23:12:07.822Z,99883.88
2023-02-16T23:14:38.954Z,99889.91
2023-02-16T23:17:07.253Z,99891.91
2023-02-16T23:19:35.538Z,99888.84
2023-02-16T23:22:03.847Z,99896.09
2023-02-16T23:24:32.137Z,99894.25
2023-02-16T23:27:00.510Z,99892.41
2023-02-16T23:29:29.012Z,99905.41
2023-02-16T23:31:57.377Z,99901.53
2023-02-16T23:34:25.701Z,99898.88
2023-02-16T23:36:54.067Z,99900.59
2023-02-16T23:39:22.339Z,99904.59
2023-02-16T23:41:50.676Z,99905.06
2023-02-16T23:44:19.326Z,99910.31
2023-02-16T23:46:47.673Z,99906.47
2023-02-16T23:49:16.121Z,99902.91
2023-02-16T23:51:44.406Z,99915.28
2023-02-16T23:54:12.870Z,99913.28
2023-02-16T23:56:42.172Z,99910.94
2023-02-16T23:59:10.524Z,99920.53
